createdAt,value
2018-11-13T00:01:42.075Z,11.50
2018-11-13T00:04:10.513Z,12.20
2018-11-13T00:06:38.966Z,12.63
2018-11-13T00:09:08.146Z,11.33
2018-11-13T00:11:36.822Z,12.17
2018-11-13T00:14:05.288Z,12.97
2018-11-13T00:16:33.684Z,13.23
2018-11-13T00:19:02.108Z,12.93
2018-11-13T00:21:30.647Z,14.63
2018-11-13T00:23:59.413Z,12.00
2018-11-13T00:26:27.878Z,13.10
2018-11-13T00:28:56.235Z,14.87
2018-11-13T00:31:24.611Z,11.53
2018-11-13T00:33:53.171Z,12.97
2018-11-13T00:36:21.825Z,12.00
2018-11-13T00:38:50.445Z,13.07
2018-11-13T00:41:18.776Z,12.57
2018-11-13T00:45:16.563Z,12.00
2018-11-13T00:47:45.078Z,12.30
2018-11-13T00:50:14.894Z,13.30
2018-11-13T00:52:43.929Z,10.97
2018-11-13T00:55:12.646Z,12.43
2018-11-13T00:57:42.242Z,11.23
2018-11-13T01:00:13.410Z,11.93
2018-11-13T01:02:42.093Z,11.77
2018-11-13T01:05:16.318Z,12.67
2018-11-13T01:07:46.301Z,12.63
2018-11-13T01:10:15.775Z,11.90
2018-11-13T01:12:44.919Z,11.40
2018-11-13T01:15:14.437Z,11.07
2018-11-13T01:17:43.495Z,12.37
2018-11-13T01:20:12.232Z,12.87
2018-11-13T01:22:40.817Z,14.63
2018-11-13T01:25:10.512Z,12.23
2018-11-13T01:27:38.963Z,12.33
2018-11-13T01:30:08.775Z,13.10
2018-11-13T01:32:38.671Z,12.33
2018-11-13T01:35:10.483Z,11.20
2018-11-13T01:37:39.193Z,12.97
2018-11-13T01:40:09.339Z,11.90
2018-11-13T01:42:37.985Z,11.67
2018-11-13T01:45:07.656Z,13.13
2018-11-13T01:47:35.825Z,12.20
2018-11-13T01:50:04.646Z,11.53
2018-11-13T01:52:33.544Z,13.07
2018-11-13T01:55:01.896Z,12.40
2018-11-13T01:57:30.450Z,13.33
2018-11-13T01:59:59.016Z,12.33
2018-11-13T02:02:27.440Z,11.87
2018-11-13T02:04:56.048Z,12.27
2018-11-13T02:07:24.657Z,11.57
2018-11-13T02:09:53.136Z,11.73
2018-11-13T02:12:21.758Z,11.20
2018-11-13T02:14:50.421Z,11.00
2018-11-13T02:17:19.204Z,10.87
2018-11-13T02:19:47.634Z,12.03
2018-11-13T02:22:16.181Z,12.27
2018-11-13T02:24:44.819Z,9.70
2018-11-13T02:27:13.257Z,11.10
2018-11-13T02:29:41.537Z,10.63
2018-11-13T02:32:10.082Z,10.37
2018-11-13T02:34:38.332Z,11.90
2018-11-13T02:37:06.883Z,10.43
2018-11-13T02:39:35.380Z,9.93
2018-11-13T02:42:03.977Z,10.43
2018-11-13T02:44:32.590Z,11.10
2018-11-13T02:47:01.161Z,10.13
2018-11-13T02:49:29.597Z,11.40
2018-11-13T02:51:58.242Z,9.73
2018-11-13T02:54:27.112Z,11.33
2018-11-13T02:56:55.598Z,10.00
2018-11-13T02:59:23.894Z,11.33
2018-11-13T03:01:52.321Z,10.87
2018-11-13T03:04:21.856Z,11.13
2018-11-13T03:06:50.344Z,11.50
2018-11-13T03:09:19.035Z,10.30
2018-11-13T03:11:47.485Z,10.97
2018-11-13T03:14:16.038Z,11.97
2018-11-13T03:16:44.581Z,10.50
2018-11-13T03:19:13.177Z,13.07
2018-11-13T03:21:41.484Z,11.10
2018-11-13T03:24:10.138Z,12.47
2018-11-13T03:26:38.824Z,9.63
2018-11-13T03:29:07.150Z,10.27
2018-11-13T03:31:35.994Z,11.30
2018-11-13T03:34:04.360Z,10.07
2018-11-13T03:36:32.801Z,10.17
2018-11-13T03:39:01.173Z,10.47
2018-11-13T03:41:29.811Z,11.67
2018-11-13T03:43:58.269Z,9.87
2018-11-13T03:46:26.715Z,10.30
2018-11-13T03:48:55.262Z,11.03
2018-11-13T03:51:23.788Z,11.57
2018-11-13T03:53:52.323Z,10.33
2018-11-13T03:56:20.785Z,10.37
2018-11-13T03:58:49.236Z,10.53
2018-11-13T04:01:17.945Z,9.87
2018-11-13T04:03:46.352Z,11.47
2018-11-13T04:06:14.845Z,11.67
2018-11-13T04:08:43.353Z,13.17
2018-11-13T04:11:11.781Z,10.37
2018-11-13T04:13:40.277Z,12.47
2018-11-13T04:16:08.759Z,13.33
2018-11-13T04:18:37.117Z,10.83
2018-11-13T04:21:05.672Z,11.73
2018-11-13T04:23:34.285Z,11.17
2018-11-13T04:26:02.704Z,10.33
2018-11-13T04:28:31.251Z,9.63
2018-11-13T04:30:59.646Z,12.10
2018-11-13T04:33:28.216Z,11.17
2018-11-13T04:35:56.787Z,10.73
2018-11-13T04:38:25.271Z,10.93
2018-11-13T04:40:53.719Z,11.87
2018-11-13T04:43:22.332Z,10.83
2018-11-13T04:45:51.042Z,11.03
2018-11-13T04:48:19.469Z,10.67
2018-11-13T04:50:48.054Z,11.53
2018-11-13T04:53:16.677Z,9.60
2018-11-13T04:55:44.959Z,15.77
2018-11-13T04:58:13.560Z,21.60
2018-11-13T05:00:42.774Z,16.90
2018-11-13T05:03:11.101Z,15.40
2018-11-13T05:05:39.371Z,12.50
2018-11-13T05:08:07.735Z,11.67
2018-11-13T05:10:36.459Z,13.77
2018-11-13T05:13:04.985Z,13.87
2018-11-13T05:15:33.483Z,16.03
2018-11-13T05:18:02.100Z,12.60
2018-11-13T05:20:30.259Z,11.87
2018-11-13T05:22:58.647Z,11.83
2018-11-13T05:25:26.928Z,13.80
2018-11-13T05:27:55.270Z,11.97
2018-11-13T05:30:23.632Z,12.30
2018-11-13T05:32:52.237Z,11.73
2018-11-13T05:35:21.590Z,10.53
2018-11-13T05:37:49.996Z,9.97
2018-11-13T05:40:22.621Z,10.77
2018-11-13T05:42:50.859Z,11.03
2018-11-13T05:45:21.079Z,11.43
2018-11-13T05:47:49.669Z,10.63
2018-11-13T05:50:18.570Z,13.17
2018-11-13T05:52:48.119Z,9.60
2018-11-13T05:55:16.719Z,9.63
2018-11-13T05:57:45.234Z,10.87
2018-11-13T06:00:22.611Z,10.60
2018-11-13T06:02:50.900Z,9.63
2018-11-13T06:05:19.574Z,10.57
2018-11-13T06:07:48.052Z,10.33
2018-11-13T06:10:16.768Z,10.53
2018-11-13T06:12:45.285Z,10.57
2018-11-13T06:15:13.776Z,11.67
2018-11-13T06:17:42.203Z,10.50
2018-11-13T06:20:11.832Z,9.77
2018-11-13T06:22:40.356Z,11.73
2018-11-13T06:25:10.641Z,11.23
2018-11-13T06:27:39.816Z,11.20
2018-11-13T06:30:14.182Z,13.50
2018-11-13T06:32:42.521Z,12.87
2018-11-13T06:35:11.038Z,12.23
2018-11-13T06:37:39.826Z,13.60
2018-11-13T06:40:09.484Z,13.00
2018-11-13T06:42:38.645Z,13.37
2018-11-13T06:45:09.010Z,14.67
2018-11-13T06:47:37.690Z,13.53
2018-11-13T06:50:07.397Z,16.07
2018-11-13T06:52:37.055Z,18.30
2018-11-13T06:55:11.658Z,16.70
2018-11-13T06:57:40.405Z,16.03
2018-11-13T07:00:09.659Z,16.40
2018-11-13T07:02:38.717Z,15.93
2018-11-13T07:05:10.318Z,17.80
2018-11-13T07:07:38.939Z,17.33
2018-11-13T07:10:09.040Z,15.77
2018-11-13T07:12:37.462Z,15.80
2018-11-13T07:15:06.848Z,15.20
2018-11-13T07:17:35.371Z,13.90
2018-11-13T07:20:03.874Z,13.30
2018-11-13T07:22:32.420Z,14.13
2018-11-13T07:25:01.276Z,14.70
2018-11-13T07:27:29.725Z,14.57
2018-11-13T07:29:58.021Z,15.50
2018-11-13T07:32:26.695Z,15.17
2018-11-13T07:34:55.065Z,12.77
2018-11-13T07:37:23.945Z,11.03
2018-11-13T07:39:52.153Z,13.10
2018-11-13T07:42:20.814Z,12.27
2018-11-13T07:44:49.196Z,12.73
2018-11-13T07:47:18.035Z,13.23
2018-11-13T07:49:46.584Z,20.67
2018-11-13T07:52:15.271Z,22.40
2018-11-13T07:54:43.462Z,14.63
2018-11-13T07:57:11.915Z,14.83
2018-11-13T07:59:40.350Z,15.00
2018-11-13T08:02:08.605Z,15.13
2018-11-13T08:04:37.160Z,12.97
2018-11-13T08:07:05.613Z,15.30
2018-11-13T08:09:33.745Z,14.93
2018-11-13T08:12:02.116Z,19.63
2018-11-13T08:14:30.675Z,12.33
2018-11-13T08:16:59.258Z,12.90
2018-11-13T08:19:27.775Z,20.70
2018-11-13T08:21:56.372Z,17.33
2018-11-13T08:24:24.907Z,19.17
2018-11-13T08:26:53.417Z,19.40
2018-11-13T08:29:21.826Z,15.30
2018-11-13T08:31:50.075Z,16.20
2018-11-13T08:34:18.698Z,16.13
2018-11-13T08:36:47.501Z,15.50
2018-11-13T08:39:16.200Z,13.37
2018-11-13T08:41:44.677Z,16.40
2018-11-13T08:44:13.179Z,14.70
2018-11-13T08:46:41.545Z,17.37
2018-11-13T08:49:09.839Z,17.83
2018-11-13T08:51:38.179Z,15.43
2018-11-13T08:54:06.611Z,16.13
2018-11-13T08:56:35.102Z,16.77
2018-11-13T08:59:04.003Z,18.03
2018-11-13T09:01:32.518Z,16.07
2018-11-13T09:04:01.347Z,20.00
2018-11-13T09:06:30.202Z,19.93
2018-11-13T09:08:59.472Z,21.20
2018-11-13T09:11:28.354Z,22.07
2018-11-13T09:13:57.263Z,18.43
2018-11-13T09:16:25.852Z,19.37
2018-11-13T09:18:54.295Z,20.20
2018-11-13T09:21:22.560Z,19.27
2018-11-13T09:23:57.924Z,17.53
2018-11-13T09:26:26.463Z,17.60
2018-11-13T09:28:55.092Z,17.83
2018-11-13T09:31:23.525Z,19.57
2018-11-13T09:33:52.110Z,20.63
2018-11-13T09:36:21.177Z,19.33
2018-11-13T09:38:49.748Z,19.40
2018-11-13T09:41:18.111Z,19.50
2018-11-13T09:43:46.545Z,18.83
2018-11-13T09:46:15.228Z,18.90
2018-11-13T09:48:43.868Z,19.30
2018-11-13T09:51:12.575Z,17.03
2018-11-13T09:53:41.152Z,16.30
2018-11-13T09:56:09.539Z,17.00
2018-11-13T09:58:38.089Z,15.43
2018-11-13T10:01:07.098Z,16.93
2018-11-13T10:03:35.857Z,19.10
2018-11-13T10:06:03.514Z,19.33
2018-11-13T10:08:31.698Z,21.33
2018-11-13T10:11:00.041Z,18.77
2018-11-13T10:13:28.219Z,19.27
2018-11-13T10:15:56.640Z,16.97
2018-11-13T10:18:25.228Z,19.30
2018-11-13T10:20:53.593Z,15.90
2018-11-13T10:23:21.745Z,18.70
2018-11-13T10:25:50.296Z,17.33
2018-11-13T10:28:18.952Z,15.50
2018-11-13T10:30:47.109Z,16.53
2018-11-13T10:33:15.283Z,14.77
2018-11-13T10:35:43.670Z,13.40
2018-11-13T10:38:12.114Z,16.07
2018-11-13T10:40:40.520Z,14.03
2018-11-13T10:43:08.995Z,14.20
2018-11-13T10:45:37.558Z,14.40
2018-11-13T10:48:05.834Z,14.77
2018-11-13T10:50:34.654Z,13.90
2018-11-13T10:53:03.184Z,14.90
2018-11-13T10:55:31.857Z,14.17
2018-11-13T10:58:00.640Z,12.43
2018-11-13T11:00:34.919Z,13.37
2018-11-13T11:03:06.248Z,13.70
2018-11-13T11:05:34.923Z,13.73
2018-11-13T11:08:03.395Z,13.33
2018-11-13T11:10:31.891Z,13.63
2018-11-13T11:13:00.362Z,13.30
2018-11-13T11:15:28.835Z,13.90
2018-11-13T11:17:57.040Z,13.00
2018-11-13T11:20:25.565Z,13.03
2018-11-13T11:22:54.019Z,13.30
2018-11-13T11:25:22.516Z,12.50
2018-11-13T11:27:51.103Z,13.20
2018-11-13T11:30:19.522Z,14.37
2018-11-13T11:32:48.131Z,13.77
2018-11-13T11:35:16.792Z,11.90
2018-11-13T11:37:45.602Z,13.30
2018-11-13T11:40:14.036Z,13.37
2018-11-13T11:42:42.634Z,11.87
2018-11-13T11:45:13.292Z,12.87
2018-11-13T11:47:42.096Z,12.80
2018-11-13T11:50:11.535Z,13.17
2018-11-13T11:52:40.015Z,12.67
2018-11-13T11:55:08.769Z,11.80
2018-11-13T11:57:37.450Z,11.57
2018-11-13T12:00:09.207Z,13.00
2018-11-13T12:02:37.514Z,13.50
2018-11-13T12:05:06.854Z,11.93
2018-11-13T12:07:35.821Z,11.03
2018-11-13T12:10:04.912Z,10.30
2018-11-13T12:12:33.441Z,11.33
2018-11-13T12:15:01.825Z,11.90
2018-11-13T12:17:30.273Z,13.03
2018-11-13T12:19:58.552Z,11.83
2018-11-13T12:22:27.007Z,13.00
2018-11-13T12:24:56.251Z,17.47
2018-11-13T12:27:24.879Z,12.13
2018-11-13T12:29:53.520Z,12.00
2018-11-13T12:32:22.072Z,11.67
2018-11-13T12:34:50.514Z,11.63
2018-11-13T12:37:18.931Z,10.73
2018-11-13T12:39:47.319Z,11.47
2018-11-13T12:42:15.763Z,11.93
2018-11-13T12:44:44.426Z,14.00
2018-11-13T12:47:12.958Z,10.80
2018-11-13T12:49:41.482Z,10.97
2018-11-13T12:52:15.088Z,10.90
2018-11-13T12:54:43.549Z,11.73
2018-11-13T12:57:11.641Z,10.80
2018-11-13T12:59:39.867Z,11.63
2018-11-13T13:02:09.239Z,13.83
2018-11-13T13:04:37.551Z,13.53
2018-11-13T13:07:06.209Z,14.63
2018-11-13T13:09:35.993Z,13.87
2018-11-13T13:12:04.887Z,11.43
2018-11-13T13:14:33.342Z,11.67
2018-11-13T13:17:01.854Z,10.43
2018-11-13T13:19:30.153Z,12.83
2018-11-13T13:21:58.686Z,10.83
2018-11-13T13:24:27.230Z,12.33
2018-11-13T13:26:55.841Z,11.47
2018-11-13T13:29:24.532Z,11.77
2018-11-13T13:31:53.323Z,10.90
2018-11-13T13:34:21.762Z,11.23
2018-11-13T13:36:50.408Z,11.57
2018-11-13T13:39:19.083Z,10.93
2018-11-13T13:41:48.002Z,11.07
2018-11-13T13:44:16.445Z,11.67
2018-11-13T13:46:45.106Z,12.20
2018-11-13T13:49:13.732Z,11.60
2018-11-13T13:51:42.372Z,10.43
2018-11-13T13:54:11.128Z,11.13
2018-11-13T13:56:39.604Z,10.67
2018-11-13T13:59:08.172Z,11.07
2018-11-13T14:01:36.703Z,10.77
2018-11-13T14:04:05.442Z,10.37
2018-11-13T14:06:34.102Z,12.43
2018-11-13T14:09:02.874Z,12.17
2018-11-13T14:11:31.596Z,11.27
2018-11-13T14:14:00.230Z,10.40
2018-11-13T14:16:28.960Z,12.60
2018-11-13T14:18:57.611Z,11.37
2018-11-13T14:21:26.250Z,10.57
2018-11-13T14:23:54.641Z,11.90
2018-11-13T14:26:23.226Z,11.00
2018-11-13T14:28:52.004Z,11.53
2018-11-13T14:31:20.798Z,11.90
2018-11-13T14:33:49.276Z,11.47
2018-11-13T14:36:18.003Z,10.93
2018-11-13T14:38:46.615Z,10.67
2018-11-13T14:41:15.127Z,10.37
2018-11-13T14:43:43.671Z,10.77
2018-11-13T14:46:12.401Z,10.33
2018-11-13T14:48:41.239Z,9.90
2018-11-13T14:51:10.154Z,11.70
2018-11-13T14:53:39.064Z,10.60
2018-11-13T14:56:07.983Z,10.40
2018-11-13T14:58:36.775Z,10.27
2018-11-13T15:01:06.023Z,10.53
2018-11-13T15:03:34.840Z,9.83
2018-11-13T15:06:03.685Z,11.07
2018-11-13T15:08:34.191Z,11.20
2018-11-13T15:11:01.339Z,11.83
2018-11-13T15:13:30.030Z,10.53
2018-11-13T15:15:58.584Z,10.70
2018-11-13T15:18:27.067Z,11.47
2018-11-13T15:20:55.724Z,11.13
2018-11-13T15:23:24.332Z,11.47
2018-11-13T15:25:52.873Z,10.93
2018-11-13T15:28:21.830Z,12.23
2018-11-13T15:30:50.855Z,11.33
2018-11-13T15:33:21.376Z,11.50
2018-11-13T15:35:49.887Z,13.20
2018-11-13T15:38:18.598Z,11.97
2018-11-13T15:40:47.432Z,12.53
2018-11-13T15:43:15.982Z,12.33
2018-11-13T15:45:44.672Z,12.10
2018-11-13T15:48:14.048Z,11.27
2018-11-13T15:50:42.619Z,12.33
2018-11-13T15:53:11.441Z,11.10
2018-11-13T15:55:40.037Z,12.07
2018-11-13T15:58:08.805Z,11.73
2018-11-13T16:00:38.513Z,11.67
2018-11-13T16:03:11.714Z,11.67
2018-11-13T16:05:42.506Z,11.27
2018-11-13T16:08:11.347Z,10.77
2018-11-13T16:10:40.031Z,10.57
2018-11-13T16:13:08.776Z,10.37
2018-11-13T16:15:37.427Z,11.07
2018-11-13T16:18:07.474Z,11.57
2018-11-13T16:20:36.201Z,11.90
2018-11-13T16:23:04.927Z,10.60
2018-11-13T16:25:33.425Z,10.63
2018-11-13T16:28:02.038Z,11.63
2018-11-13T16:30:32.134Z,11.00
2018-11-13T16:33:00.424Z,11.07
2018-11-13T16:35:29.559Z,10.60
2018-11-13T16:37:58.886Z,10.90
2018-11-13T16:40:29.334Z,12.20
2018-11-13T16:42:58.849Z,11.33
2018-11-13T16:45:28.192Z,10.90
2018-11-13T16:47:57.167Z,11.03
2018-11-13T16:50:28.528Z,11.97
2018-11-13T16:52:57.386Z,10.73
2018-11-13T16:55:31.260Z,11.17
2018-11-13T16:58:00.689Z,9.97
2018-11-13T17:00:29.272Z,10.03
2018-11-13T17:02:57.607Z,10.47
2018-11-13T17:05:26.729Z,9.80
2018-11-13T17:07:56.153Z,10.93
2018-11-13T17:10:26.043Z,9.47
2018-11-13T17:12:54.981Z,11.07
2018-11-13T17:15:24.529Z,11.43
2018-11-13T17:17:53.908Z,10.40
2018-11-13T17:20:22.548Z,10.97
2018-11-13T17:22:51.506Z,10.03
2018-11-13T17:25:25.586Z,10.53
2018-11-13T17:27:54.521Z,10.73
2018-11-13T17:30:29.422Z,9.70
2018-11-13T17:32:58.826Z,10.00
2018-11-13T17:35:28.328Z,10.00
2018-11-13T17:37:57.507Z,10.03
2018-11-13T17:40:27.556Z,11.17
2018-11-13T17:42:57.207Z,11.43
2018-11-13T17:45:29.241Z,9.70
2018-11-13T17:47:58.179Z,10.50
2018-11-13T17:50:33.276Z,10.97
2018-11-13T17:53:02.155Z,10.23
2018-11-13T17:55:30.779Z,9.97
2018-11-13T17:58:00.915Z,10.27
2018-11-13T18:07:21.235Z,10.37
2018-11-13T18:09:52.587Z,10.20
2018-11-13T18:12:21.979Z,10.13
2018-11-13T18:14:51.706Z,10.40
2018-11-13T18:17:20.707Z,11.33
2018-11-13T18:19:49.520Z,9.80
2018-11-13T18:22:18.427Z,10.77
2018-11-13T18:24:47.317Z,11.17
2018-11-13T18:27:16.163Z,11.10
2018-11-13T18:29:45.232Z,9.43
2018-11-13T18:32:14.192Z,10.03
2018-11-13T18:34:43.205Z,10.30
2018-11-13T18:37:12.176Z,11.17
2018-11-13T18:39:41.026Z,10.80
2018-11-13T18:42:09.940Z,8.13
2018-11-13T18:44:38.867Z,10.27
2018-11-13T18:47:07.641Z,10.30
2018-11-13T18:49:36.477Z,10.27
2018-11-13T18:52:05.172Z,10.90
2018-11-13T18:54:34.178Z,9.27
2018-11-13T18:57:03.424Z,10.20
2018-11-13T18:59:32.253Z,10.13
2018-11-13T19:02:01.392Z,10.60
2018-11-13T19:04:30.371Z,10.33
2018-11-13T19:06:59.178Z,11.60
2018-11-13T19:09:28.260Z,10.50
2018-11-13T19:11:57.019Z,10.30
2018-11-13T19:14:25.696Z,10.40
2018-11-13T19:16:54.345Z,10.87
2018-11-13T19:19:22.856Z,11.37
2018-11-13T19:21:51.820Z,11.47
2018-11-13T19:24:21.038Z,10.97
2018-11-13T19:26:50.490Z,11.73
2018-11-13T19:29:20.645Z,11.90
2018-11-13T19:31:49.577Z,11.33
2018-11-13T19:34:18.674Z,11.50
2018-11-13T19:36:47.747Z,11.97
2018-11-13T19:39:16.925Z,12.53
2018-11-13T19:41:45.949Z,13.80
2018-11-13T19:44:14.791Z,13.87
2018-11-13T19:46:43.745Z,11.13
2018-11-13T19:49:12.459Z,12.47
2018-11-13T19:51:41.353Z,12.73
2018-11-13T19:54:09.862Z,11.40
2018-11-13T19:56:38.510Z,10.97
2018-11-13T19:59:07.223Z,11.57
2018-11-13T20:01:35.816Z,11.73
2018-11-13T20:04:04.668Z,12.77
2018-11-13T20:06:33.293Z,12.70
2018-11-13T20:09:02.047Z,13.93
2018-11-13T20:11:30.871Z,13.73
2018-11-13T20:13:59.850Z,11.70
2018-11-13T20:16:28.863Z,11.87
2018-11-13T20:18:57.381Z,11.93
2018-11-13T20:21:26.221Z,12.33
2018-11-13T20:23:55.066Z,11.40
2018-11-13T20:26:24.443Z,12.70
2018-11-13T20:28:53.147Z,10.70
2018-11-13T20:31:21.724Z,11.07
2018-11-13T20:33:50.265Z,12.70
2018-11-13T20:36:18.532Z,10.63
2018-11-13T20:38:46.959Z,12.33
2018-11-13T20:41:15.457Z,11.40
2018-11-13T20:43:44.204Z,10.67
2018-11-13T20:46:12.959Z,11.43
2018-11-13T20:48:41.513Z,12.03
2018-11-13T20:51:09.994Z,11.77
2018-11-13T20:53:38.667Z,12.60
2018-11-13T20:56:07.190Z,11.97
2018-11-13T20:58:35.541Z,12.27
2018-11-13T21:01:04.376Z,11.07
2018-11-13T21:03:33.390Z,13.17
2018-11-13T21:06:02.189Z,11.37
2018-11-13T21:08:30.625Z,11.30
2018-11-13T21:11:00.933Z,12.30
2018-11-13T21:13:29.022Z,10.80
2018-11-13T21:15:59.063Z,10.80
2018-11-13T21:18:27.797Z,10.70
2018-11-13T21:20:56.455Z,11.80
2018-11-13T21:23:25.282Z,12.13
2018-11-13T21:25:54.598Z,12.63
2018-11-13T21:28:23.273Z,11.53
2018-11-13T21:30:51.961Z,11.23
2018-11-13T21:33:20.545Z,11.50
2018-11-13T21:35:50.130Z,12.90
2018-11-13T21:38:19.440Z,10.57
2018-11-13T21:40:48.475Z,11.40
2018-11-13T21:43:17.645Z,11.87
2018-11-13T21:45:46.189Z,12.00
2018-11-13T21:48:14.712Z,11.63
2018-11-13T21:50:43.280Z,11.43
2018-11-13T21:53:11.795Z,11.47
2018-11-13T21:55:39.916Z,11.33
2018-11-13T21:58:09.174Z,12.87
2018-11-13T22:00:37.688Z,12.10
2018-11-13T22:03:07.496Z,12.10
2018-11-13T22:05:36.419Z,12.17
2018-11-13T22:08:04.888Z,12.43
2018-11-13T22:10:33.589Z,11.33
2018-11-13T22:13:01.974Z,11.23
2018-11-13T22:15:30.896Z,11.00
2018-11-13T22:17:59.987Z,12.23
2018-11-13T22:20:28.344Z,12.77
2018-11-13T22:22:57.595Z,11.20
2018-11-13T22:25:26.533Z,11.23
2018-11-13T22:27:56.127Z,12.13
2018-11-13T22:30:25.708Z,11.27
2018-11-13T22:32:54.114Z,13.27
2018-11-13T22:35:22.961Z,10.90
2018-11-13T22:37:51.495Z,10.53
2018-11-13T22:40:21.913Z,11.50
2018-11-13T22:42:50.831Z,12.87
2018-11-13T22:45:24.172Z,11.23
2018-11-13T22:47:52.955Z,12.47
2018-11-13T22:50:22.514Z,11.33
2018-11-13T22:52:51.123Z,12.00
2018-11-13T22:55:19.607Z,12.90
2018-11-13T22:57:48.876Z,12.27
2018-11-13T23:00:22.193Z,13.23
2018-11-13T23:02:51.709Z,11.77
2018-11-13T23:05:20.048Z,11.93
2018-11-13T23:07:48.450Z,12.10
2018-11-13T23:10:17.344Z,12.37
2018-11-13T23:12:45.945Z,13.70
2018-11-13T23:15:15.752Z,11.60
2018-11-13T23:17:44.368Z,12.33
2018-11-13T23:20:14.021Z,11.87
2018-11-13T23:22:42.225Z,12.57
2018-11-13T23:25:12.447Z,12.57
2018-11-13T23:27:41.240Z,13.33
2018-11-13T23:30:14.423Z,12.00
2018-11-13T23:32:42.770Z,13.37
2018-11-13T23:35:11.691Z,13.37
2018-11-13T23:37:40.184Z,13.53
2018-11-13T23:40:10.430Z,13.67
2018-11-13T23:42:39.080Z,12.80
2018-11-13T23:45:07.572Z,14.70
2018-11-13T23:47:35.931Z,12.70
2018-11-13T23:50:04.239Z,12.77
2018-11-13T23:52:32.754Z,13.77
2018-11-13T23:55:01.042Z,13.73
2018-11-13T23:57:29.238Z,12.33
2018-11-13T23:59:57.533Z,14.53
